createdAt,value
2018-08-10T00:00:18.123Z,0.00
2018-08-10T00:01:18.102Z,0.00
2018-08-10T00:02:18.075Z,0.00
2018-08-10T00:03:18.051Z,0.00
2018-08-10T00:04:18.027Z,0.00
2018-08-10T00:05:18.006Z,0.00
2018-08-10T00:06:17.986Z,0.00
2018-08-10T00:07:17.968Z,0.00
2018-08-10T00:08:17.936Z,0.00
2018-08-10T00:09:17.917Z,0.00
2018-08-10T00:10:17.892Z,0.00
2018-08-10T00:11:17.870Z,0.00
2018-08-10T00:12:17.845Z,0.00
2018-08-10T00:13:18.072Z,0.00
2018-08-10T00:14:17.799Z,0.00
2018-08-10T00:15:17.777Z,0.00
2018-08-10T00:16:17.752Z,0.00
2018-08-10T00:17:17.734Z,0.00
2018-08-10T00:18:17.707Z,0.00
2018-08-10T00:19:17.684Z,0.00
2018-08-10T00:20:17.664Z,0.00
2018-08-10T00:21:17.638Z,0.00
2018-08-10T00:22:17.615Z,0.00
2018-08-10T00:23:17.592Z,0.00
2018-08-10T00:24:17.568Z,0.00
2018-08-10T00:25:17.545Z,0.00
2018-08-10T00:26:17.524Z,0.00
2018-08-10T00:27:17.500Z,0.00
2018-08-10T00:28:17.487Z,0.00
2018-08-10T00:29:17.454Z,0.00
2018-08-10T00:30:17.434Z,0.00
2018-08-10T00:31:17.408Z,0.00
2018-08-10T00:32:17.385Z,0.00
2018-08-10T00:33:17.364Z,0.00
2018-08-10T00:34:17.337Z,0.00
2018-08-10T00:35:17.315Z,0.00
2018-08-10T00:36:17.291Z,0.00
2018-08-10T00:37:17.269Z,0.00
2018-08-10T00:38:17.246Z,0.00
2018-08-10T00:39:17.223Z,0.00
2018-08-10T00:40:17.200Z,0.00
2018-08-10T00:41:17.180Z,0.00
2018-08-10T00:42:17.154Z,0.00
2018-08-10T00:43:17.131Z,0.00
2018-08-10T00:44:17.108Z,0.00
2018-08-10T00:45:17.085Z,0.00
2018-08-10T00:46:17.062Z,0.00
2018-08-10T00:47:17.039Z,0.00
2018-08-10T00:48:17.016Z,0.00
2018-08-10T00:49:17.002Z,0.00
2018-08-10T00:50:16.969Z,0.00
2018-08-10T00:51:16.950Z,0.00
2018-08-10T00:52:16.923Z,0.00
2018-08-10T00:53:16.900Z,0.00
2018-08-10T00:54:16.879Z,0.00
2018-08-10T00:55:16.862Z,0.00
2018-08-10T00:56:16.862Z,0.00
2018-08-10T00:57:16.808Z,0.00
2018-08-10T00:58:16.785Z,0.00
2018-08-10T00:59:16.768Z,0.00
2018-08-10T01:00:16.738Z,0.00
2018-08-10T01:01:16.715Z,0.00
2018-08-10T01:02:16.695Z,0.00
2018-08-10T01:03:16.670Z,0.00
2018-08-10T01:04:16.645Z,0.00
2018-08-10T01:05:16.624Z,0.00
2018-08-10T01:06:16.599Z,0.00
2018-08-10T01:07:16.577Z,0.00
2018-08-10T01:08:16.555Z,0.00
2018-08-10T01:09:16.532Z,0.00
2018-08-10T01:10:16.510Z,0.00
2018-08-10T01:11:16.491Z,0.00
2018-08-10T01:12:16.460Z,0.00
2018-08-10T01:13:16.533Z,0.00
2018-08-10T01:14:16.423Z,0.00
2018-08-10T01:15:16.396Z,0.00
2018-08-10T01:16:16.368Z,0.00
2018-08-10T01:17:16.345Z,0.00
2018-08-10T01:18:16.325Z,0.00
2018-08-10T01:19:16.404Z,0.00
2018-08-10T01:20:16.276Z,0.00
2018-08-10T01:21:16.253Z,0.00
2018-08-10T01:22:16.434Z,0.00
2018-08-10T01:23:16.407Z,0.00
2018-08-10T01:24:16.387Z,0.00
2018-08-10T01:25:16.363Z,0.00
2018-08-10T01:26:16.347Z,0.00
2018-08-10T01:27:16.113Z,0.00
2018-08-10T01:28:16.126Z,0.00
2018-08-10T01:29:16.066Z,0.00
2018-08-10T01:30:16.049Z,0.00
2018-08-10T01:31:16.221Z,0.00
2018-08-10T01:32:16.199Z,0.00
2018-08-10T01:33:16.176Z,0.00
2018-08-10T01:34:15.953Z,0.00
2018-08-10T01:35:16.227Z,0.00
2018-08-10T01:36:16.109Z,0.00
2018-08-10T01:37:15.880Z,0.00
2018-08-10T01:38:16.060Z,0.00
2018-08-10T01:39:16.035Z,0.00
2018-08-10T01:40:15.809Z,0.00
2018-08-10T01:41:16.038Z,0.00
2018-08-10T01:42:15.763Z,0.00
2018-08-10T01:43:15.741Z,0.00
2018-08-10T01:44:15.717Z,0.00
2018-08-10T01:45:15.696Z,0.00
2018-08-10T01:46:15.671Z,0.00
2018-08-10T01:47:15.648Z,0.00
2018-08-10T01:48:15.622Z,0.00
2018-08-10T01:49:15.601Z,0.00
2018-08-10T01:50:15.577Z,0.00
2018-08-10T01:51:15.757Z,0.00
2018-08-10T01:52:15.537Z,0.00
2018-08-10T01:53:15.549Z,0.00
2018-08-10T01:54:15.485Z,0.00
2018-08-10T01:55:15.460Z,0.00
2018-08-10T01:56:15.438Z,0.00
2018-08-10T01:57:15.415Z,0.00
2018-08-10T01:58:15.393Z,0.00
2018-08-10T01:59:15.370Z,0.00
2018-08-10T02:00:15.344Z,0.00
2018-08-10T02:01:15.322Z,0.00
2018-08-10T02:02:15.299Z,0.00
2018-08-10T02:03:15.274Z,0.00
2018-08-10T02:04:15.252Z,0.00
2018-08-10T02:05:15.230Z,0.00
2018-08-10T02:06:15.206Z,0.00
2018-08-10T02:07:15.185Z,0.00
2018-08-10T02:08:15.162Z,0.00
2018-08-10T02:09:15.136Z,0.00
2018-08-10T02:10:15.119Z,0.00
2018-08-10T02:11:15.092Z,0.00
2018-08-10T02:12:15.066Z,0.00
2018-08-10T02:13:15.044Z,0.00
2018-08-10T02:14:15.024Z,0.00
2018-08-10T02:15:15.003Z,0.00
2018-08-10T02:16:14.973Z,0.00
2018-08-10T02:17:14.951Z,0.00
2018-08-10T02:18:14.927Z,0.00
2018-08-10T02:19:14.904Z,0.00
2018-08-10T02:20:14.885Z,0.00
2018-08-10T02:21:14.864Z,0.00
2018-08-10T02:22:14.835Z,0.00
2018-08-10T02:23:14.810Z,0.00
2018-08-10T02:24:14.786Z,0.00
2018-08-10T02:25:14.765Z,0.00
2018-08-10T02:26:14.740Z,0.00
2018-08-10T02:27:14.721Z,0.00
2018-08-10T02:28:14.694Z,0.00
2018-08-10T02:29:14.670Z,0.00
2018-08-10T02:30:14.653Z,0.00
2018-08-10T02:31:14.625Z,0.00
2018-08-10T02:32:14.600Z,0.00
2018-08-10T02:33:14.583Z,0.00
2018-08-10T02:34:14.558Z,0.00
2018-08-10T02:35:14.532Z,0.00
2018-08-10T02:36:14.509Z,0.00
2018-08-10T02:37:14.485Z,0.00
2018-08-10T02:38:14.463Z,0.00
2018-08-10T02:39:14.439Z,0.00
2018-08-10T02:40:14.414Z,0.00
2018-08-10T02:41:14.394Z,0.00
2018-08-10T02:42:14.368Z,0.00
2018-08-10T02:43:14.346Z,0.00
2018-08-10T02:44:14.332Z,0.00
2018-08-10T02:45:14.297Z,0.00
2018-08-10T02:46:14.275Z,0.00
2018-08-10T02:47:14.252Z,0.00
2018-08-10T02:48:14.226Z,0.00
2018-08-10T02:49:14.205Z,0.00
2018-08-10T02:50:14.184Z,0.00
2018-08-10T02:51:14.158Z,0.00
2018-08-10T02:52:14.136Z,0.00
2018-08-10T02:53:14.111Z,0.00
2018-08-10T02:54:14.088Z,0.00
2018-08-10T02:55:14.064Z,0.00
2018-08-10T02:56:14.040Z,0.00
2018-08-10T02:57:14.017Z,0.00
2018-08-10T02:58:13.994Z,0.00
2018-08-10T02:59:13.971Z,0.00
2018-08-10T03:00:13.949Z,0.00
2018-08-10T03:01:13.922Z,0.00
2018-08-10T03:02:13.900Z,0.00
2018-08-10T03:03:13.879Z,0.00
2018-08-10T03:04:13.855Z,0.00
2018-08-10T03:05:13.829Z,0.00
2018-08-10T03:06:13.804Z,0.00
2018-08-10T03:07:13.783Z,0.00
2018-08-10T03:08:13.757Z,0.00
2018-08-10T03:09:13.736Z,0.00
2018-08-10T03:10:13.711Z,0.00
2018-08-10T03:11:13.689Z,0.00
2018-08-10T03:12:13.663Z,0.00
2018-08-10T03:13:13.640Z,0.00
2018-08-10T03:14:13.617Z,0.00
2018-08-10T03:15:13.593Z,0.00
2018-08-10T03:16:13.573Z,0.00
2018-08-10T03:17:13.547Z,0.00
2018-08-10T03:18:13.522Z,0.00
2018-08-10T03:19:13.505Z,0.00
2018-08-10T03:20:13.476Z,0.00
2018-08-10T03:21:13.453Z,0.00
2018-08-10T03:22:13.626Z,0.00
2018-08-10T03:23:13.405Z,0.00
2018-08-10T03:24:13.379Z,0.00
2018-08-10T03:25:13.356Z,0.00
2018-08-10T03:26:13.333Z,0.00
2018-08-10T03:27:13.309Z,0.00
2018-08-10T03:28:13.285Z,0.00
2018-08-10T03:29:13.267Z,0.00
2018-08-10T03:30:13.245Z,0.00
2018-08-10T03:31:13.215Z,0.00
2018-08-10T03:32:13.189Z,0.00
2018-08-10T03:33:13.166Z,0.00
2018-08-10T03:34:13.143Z,0.00
2018-08-10T03:35:13.121Z,0.00
2018-08-10T03:36:13.095Z,5.63
2018-08-10T03:37:13.080Z,5.63
2018-08-10T03:38:13.048Z,5.63
2018-08-10T03:39:13.027Z,5.63
2018-08-10T03:40:13.005Z,5.63
2018-08-10T03:41:12.976Z,5.63
2018-08-10T03:42:12.956Z,5.63
2018-08-10T03:43:12.929Z,5.63
2018-08-10T03:44:12.904Z,5.63
2018-08-10T03:45:12.883Z,5.63
2018-08-10T03:46:12.857Z,5.63
2018-08-10T03:47:12.835Z,11.25
2018-08-10T03:48:12.807Z,11.25
2018-08-10T03:49:12.789Z,5.63
2018-08-10T03:50:12.768Z,5.63
2018-08-10T03:51:12.748Z,11.25
2018-08-10T03:52:12.916Z,11.25
2018-08-10T03:53:12.689Z,16.88
2018-08-10T03:54:12.667Z,16.88
2018-08-10T03:55:12.642Z,16.88
2018-08-10T03:56:12.674Z,22.50
2018-08-10T03:57:12.596Z,22.50
2018-08-10T03:58:12.570Z,22.50
2018-08-10T03:59:12.548Z,16.88
2018-08-10T04:00:12.531Z,16.88
2018-08-10T04:01:12.498Z,22.50
2018-08-10T04:02:12.678Z,22.50
2018-08-10T04:03:12.452Z,22.50
2018-08-10T04:04:12.428Z,16.88
2018-08-10T04:05:12.404Z,16.88
2018-08-10T04:06:12.584Z,16.88
2018-08-10T04:07:12.559Z,16.88
2018-08-10T04:08:12.535Z,16.88
2018-08-10T04:09:12.509Z,16.88
2018-08-10T04:10:12.487Z,22.50
2018-08-10T04:11:12.261Z,22.50
2018-08-10T04:12:12.240Z,22.50
2018-08-10T04:13:12.213Z,22.50
2018-08-10T04:14:12.190Z,22.50
2018-08-10T04:15:12.168Z,22.50
2018-08-10T04:16:12.140Z,22.50
2018-08-10T04:17:12.115Z,28.13
2018-08-10T04:18:12.093Z,28.13
2018-08-10T04:19:12.072Z,22.50
2018-08-10T04:20:12.052Z,22.50
2018-08-10T04:21:12.022Z,22.50
2018-08-10T04:22:11.998Z,22.50
2018-08-10T04:23:12.177Z,16.88
2018-08-10T04:24:12.152Z,22.50
2018-08-10T04:25:11.927Z,39.38
2018-08-10T04:26:12.103Z,28.13
2018-08-10T04:27:11.883Z,22.50
2018-08-10T04:28:12.056Z,28.13
2018-08-10T04:29:11.840Z,28.13
2018-08-10T04:30:11.807Z,33.75
2018-08-10T04:31:11.782Z,28.13
2018-08-10T04:32:11.757Z,28.13
2018-08-10T04:33:11.735Z,39.38
2018-08-10T04:34:11.711Z,45.00
2018-08-10T04:35:11.687Z,45.00
2018-08-10T04:36:11.666Z,78.75
2018-08-10T04:37:11.638Z,73.13
2018-08-10T04:38:11.615Z,61.88
2018-08-10T04:39:11.592Z,56.25
2018-08-10T04:40:11.570Z,90.00
2018-08-10T04:41:11.546Z,95.63
2018-08-10T04:42:11.519Z,101.25
2018-08-10T04:43:11.507Z,101.25
2018-08-10T04:44:11.471Z,123.75
2018-08-10T04:45:11.448Z,146.25
2018-08-10T04:46:11.424Z,163.13
2018-08-10T04:47:11.404Z,180.00
2018-08-10T04:48:11.441Z,208.13
2018-08-10T04:49:11.355Z,213.75
2018-08-10T04:50:11.328Z,213.75
2018-08-10T04:51:11.510Z,230.63
2018-08-10T04:52:11.487Z,247.50
2018-08-10T04:53:11.256Z,281.25
2018-08-10T04:54:11.233Z,337.50
2018-08-10T04:55:11.428Z,343.13
2018-08-10T04:56:11.185Z,365.63
2018-08-10T04:57:11.161Z,360.00
2018-08-10T04:58:11.136Z,320.63
2018-08-10T04:59:11.116Z,309.38
2018-08-10T05:00:11.291Z,292.50
2018-08-10T05:01:11.065Z,326.25
2018-08-10T05:02:11.053Z,326.25
2018-08-10T05:03:11.020Z,337.50
2018-08-10T05:04:10.994Z,309.38
2018-08-10T05:05:10.974Z,281.25
2018-08-10T05:06:10.946Z,270.00
2018-08-10T05:07:10.925Z,303.75
2018-08-10T05:08:10.900Z,298.13
2018-08-10T05:09:10.877Z,286.88
2018-08-10T05:10:10.853Z,270.00
2018-08-10T05:11:11.129Z,275.63
2018-08-10T05:12:10.803Z,270.00
2018-08-10T05:13:10.781Z,270.00
2018-08-10T05:14:10.756Z,270.00
2018-08-10T05:15:10.744Z,281.25
2018-08-10T05:16:10.711Z,298.13
2018-08-10T05:17:10.692Z,320.63
2018-08-10T05:18:10.663Z,326.25
2018-08-10T05:19:10.640Z,303.75
2018-08-10T05:20:10.616Z,230.63
2018-08-10T05:21:10.592Z,236.25
2018-08-10T05:22:10.568Z,315.00
2018-08-10T05:23:10.546Z,326.25
2018-08-10T05:24:10.523Z,405.00
2018-08-10T05:25:10.497Z,421.88
2018-08-10T05:26:10.477Z,410.63
2018-08-10T05:27:10.452Z,450.00
2018-08-10T05:28:10.426Z,466.88
2018-08-10T05:29:10.408Z,427.50
2018-08-10T05:30:10.383Z,433.13
2018-08-10T05:31:10.354Z,444.38
2018-08-10T05:34:10.892Z,556.88
2018-08-10T05:35:13.291Z,601.88
2018-08-10T05:37:34.749Z,309.38
2018-08-10T05:38:34.516Z,281.25
2018-08-10T05:39:34.491Z,309.38
2018-08-10T05:40:34.676Z,365.63
2018-08-10T05:41:34.445Z,331.88
2018-08-10T05:42:34.419Z,421.88
2018-08-10T05:43:34.398Z,360.00
2018-08-10T05:44:34.373Z,343.13
2018-08-10T05:45:34.350Z,371.25
2018-08-10T05:46:36.949Z,365.63
2018-08-10T05:48:34.277Z,303.75
2018-08-10T05:49:34.259Z,315.00
2018-08-10T05:50:34.230Z,360.00
2018-08-10T05:51:34.208Z,354.38
2018-08-10T05:52:34.271Z,354.38
2018-08-10T05:53:34.162Z,410.63
2018-08-10T05:54:34.134Z,416.25
2018-08-10T05:55:34.112Z,416.25
2018-08-10T05:56:34.089Z,382.50
2018-08-10T05:57:34.148Z,427.50
2018-08-10T05:58:34.039Z,478.13
2018-08-10T05:59:34.017Z,399.38
2018-08-10T06:00:34.043Z,461.25
2018-08-10T06:01:33.969Z,506.25
2018-08-10T06:02:33.944Z,461.25
2018-08-10T06:03:33.956Z,421.88
2018-08-10T06:04:33.897Z,388.13
2018-08-10T06:05:33.878Z,393.75
2018-08-10T06:06:33.849Z,416.25
2018-08-10T06:07:33.826Z,326.25
2018-08-10T06:08:33.804Z,343.13
2018-08-10T06:09:33.778Z,405.00
2018-08-10T06:10:33.755Z,421.88
2018-08-10T06:11:33.730Z,478.13
2018-08-10T06:12:33.706Z,534.38
2018-08-10T06:13:33.683Z,545.63
2018-08-10T06:14:33.658Z,573.75
2018-08-10T06:15:33.670Z,562.50
2018-08-10T06:16:33.611Z,523.13
2018-08-10T06:17:33.588Z,579.38
2018-08-10T06:18:33.565Z,652.50
2018-08-10T06:19:33.645Z,714.38
2018-08-10T06:20:33.523Z,658.13
2018-08-10T06:21:33.499Z,1068.75
2018-08-10T06:22:33.469Z,742.50
2018-08-10T06:23:33.444Z,990.00
2018-08-10T06:24:33.421Z,1608.75
2018-08-10T06:25:33.398Z,866.25
2018-08-10T06:26:33.373Z,697.50
2018-08-10T06:27:33.351Z,720.00
2018-08-10T06:34:04.306Z,978.75
2018-08-10T06:35:04.021Z,708.75
2018-08-10T06:36:03.992Z,1215.00
2018-08-10T06:38:03.948Z,2002.50
2018-08-10T06:39:03.924Z,748.13
2018-08-10T06:40:03.902Z,1355.63
2018-08-10T06:41:03.879Z,2126.25
2018-08-10T06:51:10.408Z,1035.00
2018-08-10T06:52:10.339Z,798.75
2018-08-10T06:53:10.352Z,905.63
2018-08-10T06:54:10.095Z,1125.00
2018-08-10T06:55:10.075Z,855.00
2018-08-10T06:56:10.092Z,866.25
2018-08-10T06:57:10.034Z,1434.38
2018-08-10T06:58:10.007Z,1468.13
2018-08-10T06:59:09.986Z,1771.88
2018-08-10T07:00:09.964Z,1642.50
2018-08-10T07:01:52.297Z,765.00
2018-08-10T07:02:52.276Z,2210.63
2018-08-10T07:04:34.206Z,1411.88
2018-08-10T07:05:34.185Z,3189.38
2018-08-10T07:06:34.365Z,894.38
2018-08-10T07:07:37.483Z,843.75
2018-08-10T07:20:03.599Z,2553.75
2018-08-10T07:21:03.374Z,2548.13
2018-08-10T07:22:00.735Z,2531.25
2018-08-10T07:23:00.717Z,2598.75
2018-08-10T07:24:00.691Z,2745.00
2018-08-10T07:25:00.671Z,2829.38
2018-08-10T07:26:00.449Z,2840.63
2018-08-10T07:27:00.454Z,2362.50
2018-08-10T07:28:00.610Z,2790.00
2018-08-10T07:29:00.592Z,2705.63
2018-08-10T07:41:26.373Z,714.38
2018-08-10T07:42:26.148Z,776.25
2018-08-10T07:44:50.639Z,1113.75
2018-08-10T07:45:50.621Z,1068.75
2018-08-10T07:50:21.368Z,2913.75
2018-08-10T07:51:21.142Z,2925.00
2018-08-10T07:52:21.191Z,2880.00
2018-08-10T07:53:21.100Z,2801.25
2018-08-10T07:54:21.080Z,2846.25
2018-08-10T08:03:22.790Z,1338.75
2018-08-10T08:04:22.552Z,3161.25
2018-08-10T08:05:22.528Z,1996.88
2018-08-10T08:06:22.508Z,1659.38
2018-08-10T08:22:07.907Z,1096.88
2018-08-10T08:23:07.687Z,967.50
2018-08-10T08:24:07.668Z,838.13
2018-08-10T08:25:07.639Z,2745.00
2018-08-10T08:26:07.621Z,2958.75
2018-08-10T08:33:02.857Z,3121.88
2018-08-10T08:35:27.147Z,3065.63
2018-08-10T08:37:09.286Z,3532.50
2018-08-10T08:43:04.643Z,2992.50
2018-08-10T08:44:04.124Z,2986.88
2018-08-10T08:45:04.098Z,2902.50
2018-08-10T08:47:28.590Z,3065.63
2018-08-10T08:48:28.371Z,3088.13
2018-08-10T08:49:28.553Z,3285.00
2018-08-10T08:50:28.332Z,3290.63
2018-08-10T08:51:28.515Z,1057.50
2018-08-10T08:52:28.293Z,2975.63
2018-08-10T08:53:28.276Z,3060.00
2018-08-10T08:54:28.257Z,3172.50
2018-08-10T08:55:28.239Z,3093.75
2018-08-10T08:56:29.433Z,3093.75
2018-08-10T08:57:29.625Z,3318.75
2018-08-10T08:58:28.998Z,3223.13
2018-08-10T08:59:28.367Z,1417.50
2018-08-10T09:00:28.147Z,3639.38
2018-08-10T09:01:28.128Z,3521.25
2018-08-10T09:02:28.316Z,1181.25
2018-08-10T09:03:28.093Z,3616.88
2018-08-10T09:04:28.073Z,3661.88
2018-08-10T09:05:28.056Z,3543.75
2018-08-10T09:06:28.241Z,3583.13
2018-08-10T09:07:30.882Z,3841.88
2018-08-10T09:08:28.203Z,3864.38
2018-08-10T09:09:27.985Z,1265.63
2018-08-10T09:10:27.966Z,1828.13
2018-08-10T09:11:27.948Z,1276.88
2018-08-10T09:12:27.930Z,1260.00
2018-08-10T09:13:27.917Z,3571.88
2018-08-10T09:14:27.949Z,3521.25
2018-08-10T09:15:27.878Z,3701.25
2018-08-10T09:16:27.859Z,3915.00
2018-08-10T09:17:27.982Z,1411.88
2018-08-10T09:18:27.826Z,3993.75
2018-08-10T09:19:27.806Z,1372.50
2018-08-10T09:20:27.790Z,1271.25
2018-08-10T09:21:27.772Z,1248.75
2018-08-10T09:22:27.752Z,3971.25
2018-08-10T09:23:27.850Z,1372.50
2018-08-10T09:24:27.715Z,3858.75
2018-08-10T09:25:27.700Z,1299.38
2018-08-10T09:26:27.747Z,3571.88
2018-08-10T09:27:27.665Z,3943.13
2018-08-10T09:28:27.849Z,3898.13
2018-08-10T09:29:27.625Z,3875.63
2018-08-10T09:30:27.608Z,3780.00
2018-08-10T09:31:27.589Z,3757.50
2018-08-10T09:32:27.775Z,4016.25
2018-08-10T09:33:27.553Z,2289.38
2018-08-10T09:34:27.590Z,4123.13
2018-08-10T09:36:09.890Z,1996.88
2018-08-10T09:37:09.860Z,1158.75
2018-08-10T09:38:09.843Z,1147.50
2018-08-10T09:39:09.625Z,1085.63
2018-08-10T09:40:09.606Z,1046.25
2018-08-10T09:41:09.592Z,1091.25
2018-08-10T09:42:09.639Z,1136.25
2018-08-10T09:43:09.559Z,1248.75
2018-08-10T09:44:09.586Z,1428.75
2018-08-10T09:45:09.730Z,1569.38
2018-08-10T09:46:09.704Z,1665.00
2018-08-10T09:47:09.678Z,1766.25
2018-08-10T09:48:09.457Z,2683.13
2018-08-10T09:49:51.797Z,2103.75
2018-08-10T09:50:51.573Z,2199.38
2018-08-10T09:51:51.621Z,4066.88
2018-08-10T09:52:51.537Z,4241.25
2018-08-10T09:53:51.516Z,3448.13
2018-08-10T09:54:51.494Z,2941.88
2018-08-10T09:55:51.479Z,2570.63
2018-08-10T09:56:51.456Z,1738.13
2018-08-10T09:57:51.476Z,4095.00
2018-08-10T09:58:51.418Z,1248.75
2018-08-10T09:59:51.536Z,1209.38
2018-08-10T10:00:51.381Z,4179.38
2018-08-10T10:01:51.970Z,4123.13
2018-08-10T10:02:51.546Z,3245.63
2018-08-10T10:03:51.325Z,2593.13
2018-08-10T10:04:51.308Z,2244.38
2018-08-10T10:05:51.290Z,4365.00
2018-08-10T10:06:51.475Z,3234.38
2018-08-10T10:07:51.255Z,4477.50
2018-08-10T10:08:51.238Z,4539.38
2018-08-10T10:09:51.218Z,1411.88
2018-08-10T10:10:51.201Z,1434.38
2018-08-10T10:11:51.182Z,4612.50
2018-08-10T10:12:51.166Z,4567.50
2018-08-10T10:13:51.152Z,4376.25
2018-08-10T10:14:51.133Z,4168.13
2018-08-10T10:15:51.117Z,1710.00
2018-08-10T10:16:51.096Z,1535.63
2018-08-10T10:17:51.082Z,1575.00
2018-08-10T10:18:51.061Z,4511.25
2018-08-10T10:19:51.044Z,2283.75
2018-08-10T10:20:51.028Z,4539.38
2018-08-10T10:21:51.010Z,4218.75
2018-08-10T10:22:50.991Z,4584.38
2018-08-10T10:23:50.974Z,4612.50
2018-08-10T10:24:50.957Z,4601.25
2018-08-10T10:25:50.940Z,1766.25
2018-08-10T10:26:50.922Z,3780.00
2018-08-10T10:27:50.905Z,2227.50
2018-08-10T10:28:50.888Z,3566.25
2018-08-10T10:29:50.871Z,3020.63
2018-08-10T10:30:50.856Z,2075.63
2018-08-10T10:31:50.838Z,2008.13
2018-08-10T10:32:50.822Z,2070.00
2018-08-10T10:33:50.800Z,2880.00
2018-08-10T10:34:50.784Z,1603.13
2018-08-10T10:36:33.124Z,1046.25
2018-08-10T10:37:32.901Z,871.88
2018-08-10T10:38:33.086Z,781.88
2018-08-10T10:39:33.071Z,798.75
2018-08-10T10:40:33.048Z,933.75
2018-08-10T10:41:32.899Z,1119.38
2018-08-10T10:42:32.806Z,950.63
2018-08-10T10:43:32.988Z,888.75
2018-08-10T10:45:18.150Z,967.50
2018-08-10T10:47:39.413Z,1226.25
2018-08-10T10:49:21.547Z,1383.75
2018-08-10T10:50:21.526Z,1440.00
2018-08-10T10:51:21.504Z,1490.63
2018-08-10T10:52:21.484Z,1490.63
2018-08-10T10:53:21.466Z,1479.38
2018-08-10T10:55:03.598Z,1653.75
2018-08-10T10:56:03.372Z,1507.50
2018-08-10T10:57:03.357Z,1530.00
2018-08-10T10:58:03.331Z,1569.38
2018-08-10T11:01:09.973Z,1710.00
2018-08-10T11:02:09.750Z,3802.50
2018-08-10T11:03:09.729Z,4415.63
2018-08-10T11:04:52.065Z,4297.50
2018-08-10T11:05:53.261Z,4252.50
2018-08-10T11:06:52.027Z,1164.38
2018-08-10T11:07:51.806Z,1102.50
2018-08-10T11:08:51.785Z,1215.00
2018-08-10T11:09:51.765Z,1327.50
2018-08-10T11:10:51.748Z,1507.50
2018-08-10T11:11:51.725Z,1710.00
2018-08-10T11:12:51.708Z,1923.75
2018-08-10T11:13:51.687Z,4297.50
2018-08-10T11:14:55.503Z,2205.00
2018-08-10T11:15:51.862Z,4905.00
2018-08-10T11:16:51.630Z,1620.00
2018-08-10T11:17:51.609Z,1451.25
2018-08-10T11:18:51.593Z,1389.38
2018-08-10T11:19:51.577Z,1451.25
2018-08-10T11:20:51.573Z,1597.50
2018-08-10T11:21:51.536Z,1777.50
2018-08-10T11:22:51.521Z,1861.88
2018-08-10T11:23:51.518Z,4117.50
2018-08-10T11:24:51.484Z,2846.25
2018-08-10T11:25:51.619Z,4455.00
2018-08-10T11:26:51.440Z,1434.38
2018-08-10T11:27:51.422Z,1344.38
2018-08-10T11:28:51.409Z,1456.88
2018-08-10T11:29:51.381Z,1575.00
2018-08-10T11:30:54.189Z,1783.13
2018-08-10T11:31:51.380Z,1968.75
2018-08-10T11:32:51.530Z,3864.38
2018-08-10T11:33:51.303Z,2548.13
2018-08-10T11:34:51.289Z,4595.63
2018-08-10T11:35:51.260Z,3082.50
2018-08-10T11:36:51.244Z,2047.50
2018-08-10T11:37:51.220Z,2390.63
2018-08-10T11:38:51.207Z,1760.63
2018-08-10T11:39:51.184Z,1845.00
2018-08-10T11:40:51.178Z,2233.13
2018-08-10T11:41:51.145Z,1980.00
2018-08-10T11:42:51.149Z,2013.75
2018-08-10T11:43:51.117Z,2047.50
2018-08-10T11:44:51.103Z,1878.75
2018-08-10T11:45:51.072Z,4691.25
2018-08-10T11:46:51.052Z,4668.75
2018-08-10T11:47:51.036Z,4550.63
2018-08-10T11:48:51.016Z,4246.88
2018-08-10T11:49:50.995Z,4280.63
2018-08-10T11:50:50.979Z,4190.63
2018-08-10T11:51:50.961Z,4252.50
2018-08-10T11:52:51.146Z,4196.25
2018-08-10T11:53:51.128Z,4162.50
2018-08-10T11:54:51.119Z,4230.00
2018-08-10T11:55:50.892Z,4241.25
2018-08-10T11:56:50.877Z,4213.13
2018-08-10T11:57:50.859Z,4303.13
2018-08-10T11:58:50.844Z,4404.38
2018-08-10T11:59:51.037Z,4336.88
2018-08-10T12:00:50.809Z,4224.38
2018-08-10T12:01:50.815Z,4348.13
2018-08-10T12:02:50.783Z,4477.50
2018-08-10T12:03:50.962Z,4449.38
2018-08-10T12:06:15.314Z,4573.13
2018-08-10T12:07:15.046Z,4590.00
2018-08-10T12:08:15.037Z,3729.38
2018-08-10T12:09:57.375Z,4466.25
2018-08-10T12:10:57.358Z,3043.13
2018-08-10T12:11:57.144Z,1873.13
2018-08-10T12:12:57.197Z,4314.38
2018-08-10T12:13:57.110Z,4415.63
2018-08-10T12:14:57.094Z,4578.75
2018-08-10T12:15:57.075Z,4123.13
2018-08-10T12:16:57.059Z,1552.50
2018-08-10T12:17:57.044Z,1344.38
2018-08-10T12:18:57.048Z,1237.50
2018-08-10T12:19:57.009Z,1254.38
2018-08-10T12:20:57.199Z,1445.63
2018-08-10T12:21:57.181Z,4381.88
2018-08-10T12:22:56.957Z,3999.38
2018-08-10T12:23:56.943Z,1636.88
2018-08-10T12:24:56.932Z,1580.63
2018-08-10T12:25:59.729Z,4066.88
2018-08-10T12:26:56.887Z,4320.00
2018-08-10T12:27:56.869Z,2790.00
2018-08-10T12:28:57.059Z,2632.50
2018-08-10T12:29:56.835Z,1423.13
2018-08-10T12:30:56.817Z,1411.88
2018-08-10T12:31:57.004Z,1485.00
2018-08-10T12:32:56.782Z,1293.75
2018-08-10T12:33:56.769Z,1198.13
2018-08-10T12:35:39.107Z,1085.63
2018-08-10T12:36:39.085Z,1012.50
2018-08-10T12:38:21.225Z,1006.88
2018-08-10T12:39:21.003Z,1867.50
2018-08-10T12:40:20.983Z,1389.38
2018-08-10T12:41:20.965Z,1411.88
2018-08-10T12:42:20.946Z,1479.38
2018-08-10T12:43:21.736Z,1366.88
2018-08-10T12:44:21.110Z,4185.00
2018-08-10T12:45:20.894Z,3656.25
2018-08-10T12:46:20.870Z,1462.50
2018-08-10T12:47:20.853Z,1361.25
2018-08-10T12:48:20.831Z,3909.38
2018-08-10T12:49:20.813Z,1445.63
2018-08-10T12:50:20.896Z,1164.38
2018-08-10T12:51:20.778Z,4156.88
2018-08-10T12:52:20.763Z,4100.63
2018-08-10T12:53:20.741Z,3892.50
2018-08-10T12:54:20.724Z,4050.00
2018-08-10T12:55:20.708Z,4100.63
2018-08-10T12:56:20.683Z,3954.38
2018-08-10T12:57:20.877Z,3841.88
2018-08-10T12:58:20.648Z,3892.50
2018-08-10T12:59:20.834Z,3965.63
2018-08-10T13:00:20.614Z,4005.00
2018-08-10T13:01:20.598Z,4095.00
2018-08-10T13:02:20.581Z,4162.50
2018-08-10T13:03:20.567Z,4314.38
2018-08-10T13:04:20.548Z,4140.00
2018-08-10T13:05:20.735Z,3954.38
2018-08-10T13:06:20.720Z,4083.75
2018-08-10T13:07:20.700Z,4201.88
2018-08-10T13:08:20.482Z,4134.38
2018-08-10T13:09:20.668Z,3521.25
2018-08-10T13:10:20.450Z,1850.63
2018-08-10T13:11:20.638Z,1305.00
2018-08-10T13:12:20.417Z,1316.25
2018-08-10T13:13:20.404Z,4072.50
2018-08-10T13:14:20.386Z,4078.13
2018-08-10T13:15:20.368Z,4196.25
2018-08-10T13:16:20.352Z,2300.63
2018-08-10T13:17:20.339Z,1310.63
2018-08-10T13:18:20.347Z,1198.13
2018-08-10T13:19:20.302Z,3965.63
2018-08-10T13:20:20.292Z,3526.88
2018-08-10T13:21:20.269Z,3937.50
2018-08-10T13:22:20.261Z,3403.13
2018-08-10T13:23:24.273Z,3965.63
2018-08-10T13:24:20.419Z,3915.00
2018-08-10T13:25:20.201Z,3937.50
2018-08-10T13:26:20.209Z,3836.25
2018-08-10T13:27:20.167Z,3819.38
2018-08-10T13:28:20.171Z,3600.00
2018-08-10T13:29:20.139Z,3549.38
2018-08-10T13:30:20.118Z,3712.50
2018-08-10T13:31:20.303Z,3870.00
2018-08-10T13:32:20.287Z,3633.75
2018-08-10T13:33:20.070Z,3729.38
2018-08-10T13:34:20.255Z,1096.88
2018-08-10T13:35:20.039Z,1186.88
2018-08-10T13:36:20.222Z,1209.38
2018-08-10T13:37:20.205Z,1209.38
2018-08-10T13:38:20.189Z,1800.00
2018-08-10T13:39:19.968Z,3712.50
2018-08-10T13:40:19.958Z,1389.38
2018-08-10T13:41:20.487Z,1237.50
2018-08-10T13:42:20.120Z,1181.25
2018-08-10T13:43:20.106Z,1153.13
2018-08-10T13:44:19.887Z,1080.00
2018-08-10T13:45:19.869Z,1018.13
2018-08-10T13:46:20.098Z,984.38
2018-08-10T13:51:32.968Z,888.75
2018-08-10T13:52:32.948Z,781.88
2018-08-10T13:53:33.535Z,703.13
2018-08-10T13:54:32.909Z,725.63
2018-08-10T13:55:32.888Z,776.25
2018-08-10T13:56:32.872Z,798.75
2018-08-10T13:57:32.848Z,832.50
2018-08-10T13:58:32.625Z,810.00
2018-08-10T13:59:32.608Z,787.50
2018-08-10T14:00:32.585Z,742.50
2018-08-10T14:01:32.580Z,669.38
2018-08-10T14:03:17.523Z,523.13
2018-08-10T14:04:14.882Z,427.50
2018-08-10T14:05:14.867Z,365.63
2018-08-10T14:06:15.492Z,331.88
2018-08-10T14:07:14.821Z,309.38
2018-08-10T14:08:14.597Z,298.13
2018-08-10T14:09:14.576Z,303.75
2018-08-10T14:10:14.756Z,298.13
2018-08-10T14:11:14.736Z,298.13
2018-08-10T14:12:14.716Z,298.13
2018-08-10T14:13:14.895Z,320.63
2018-08-10T14:14:14.672Z,348.75
2018-08-10T14:15:14.652Z,393.75
2018-08-10T14:16:14.429Z,444.38
2018-08-10T14:17:14.406Z,478.13